sensor_id;sensor_type;location;lat;lon;timestamp;P1;durP1;ratioP1;P2;durP2;ratioP2
3083;SDS011;1552;51.952;7.618;2023-06-22T00:01:53;13.63;;;9.32;;
3083;SDS011;1552;51.952;7.618;2023-06-22T00:04:19;11.07;;;9.00;;
3083;SDS011;1552;51.952;7.618;2023-06-22T00:06:45;10.90;;;8.85;;
3083;SDS011;1552;51.952;7.618;2023-06-22T00:09:12;12.10;;;9.82;;
3083;SDS011;1552;51.952;7.618;2023-06-22T00:11:38;10.38;;;9.25;;
3083;SDS011;1552;51.952;7.618;2023-06-22T00:14:05;13.05;;;10.80;;
3083;SDS011;1552;51.952;7.618;2023-06-22T00:16:32;11.48;;;8.98;;
3083;SDS011;1552;51.952;7.618;2023-06-22T00:18:59;11.57;;;9.40;;
3083;SDS011;1552;51.952;7.618;2023-06-22T00:21:27;11.38;;;9.98;;
3083;SDS011;1552;51.952;7.618;2023-06-22T00:23:53;13.63;;;9.43;;
3083;SDS011;1552;51.952;7.618;2023-06-22T00:26:20;13.25;;;9.88;;
3083;SDS011;1552;51.952;7.618;2023-06-22T00:28:47;11.80;;;10.02;;
3083;SDS011;1552;51.952;7.618;2023-06-22T00:31:13;12.77;;;9.80;;
3083;SDS011;1552;51.952;7.618;2023-06-22T00:33:41;13.15;;;9.82;;
3083;SDS011;1552;51.952;7.618;2023-06-22T00:36:07;14.00;;;10.18;;
3083;SDS011;1552;51.952;7.618;2023-06-22T00:38:33;14.02;;;10.23;;
3083;SDS011;1552;51.952;7.618;2023-06-22T00:41:00;12.27;;;9.93;;
3083;SDS011;1552;51.952;7.618;2023-06-22T00:43:26;11.38;;;9.48;;
3083;SDS011;1552;51.952;7.618;2023-06-22T00:45:54;10.88;;;9.07;;
3083;SDS011;1552;51.952;7.618;2023-06-22T00:48:21;11.88;;;10.32;;
3083;SDS011;1552;51.952;7.618;2023-06-22T00:50:49;10.98;;;9.88;;
3083;SDS011;1552;51.952;7.618;2023-06-22T00:53:18;13.65;;;10.40;;
3083;SDS011;1552;51.952;7.618;2023-06-22T00:55:45;10.48;;;9.38;;
3083;SDS011;1552;51.952;7.618;2023-06-22T00:58:12;13.20;;;9.95;;
3083;SDS011;1552;51.952;7.618;2023-06-22T01:00:39;12.75;;;10.18;;
3083;SDS011;1552;51.952;7.618;2023-06-22T01:03:05;11.82;;;9.98;;
3083;SDS011;1552;51.952;7.618;2023-06-22T01:05:33;12.65;;;10.57;;
3083;SDS011;1552;51.952;7.618;2023-06-22T01:08:04;11.88;;;10.50;;
3083;SDS011;1552;51.952;7.618;2023-06-22T01:10:33;14.00;;;10.32;;
3083;SDS011;1552;51.952;7.618;2023-06-22T01:13:04;11.77;;;10.27;;
3083;SDS011;1552;51.952;7.618;2023-06-22T01:15:33;12.35;;;10.48;;
3083;SDS011;1552;51.952;7.618;2023-06-22T01:18:01;12.45;;;9.95;;
3083;SDS011;1552;51.952;7.618;2023-06-22T01:20:29;12.32;;;10.43;;
3083;SDS011;1552;51.952;7.618;2023-06-22T01:23:01;13.75;;;10.75;;
3083;SDS011;1552;51.952;7.618;2023-06-22T01:25:31;15.40;;;11.10;;
3083;SDS011;1552;51.952;7.618;2023-06-22T01:28:02;13.38;;;10.48;;
3083;SDS011;1552;51.952;7.618;2023-06-22T01:30:31;12.63;;;10.57;;
3083;SDS011;1552;51.952;7.618;2023-06-22T01:33:00;12.65;;;10.55;;
3083;SDS011;1552;51.952;7.618;2023-06-22T01:35:29;12.80;;;10.40;;
3083;SDS011;1552;51.952;7.618;2023-06-22T01:37:55;12.05;;;10.27;;
3083;SDS011;1552;51.952;7.618;2023-06-22T01:40:22;13.32;;;10.13;;
3083;SDS011;1552;51.952;7.618;2023-06-22T01:42:49;12.75;;;10.50;;
3083;SDS011;1552;51.952;7.618;2023-06-22T01:45:16;14.25;;;10.40;;
3083;SDS011;1552;51.952;7.618;2023-06-22T01:47:46;13.20;;;11.43;;
3083;SDS011;1552;51.952;7.618;2023-06-22T01:50:13;12.02;;;10.75;;
3083;SDS011;1552;51.952;7.618;2023-06-22T01:52:39;13.77;;;10.55;;
3083;SDS011;1552;51.952;7.618;2023-06-22T01:55:06;13.90;;;10.60;;
3083;SDS011;1552;51.952;7.618;2023-06-22T01:57:33;14.63;;;11.80;;
3083;SDS011;1552;51.952;7.618;2023-06-22T02:00:00;16.17;;;11.18;;
3083;SDS011;1552;51.952;7.618;2023-06-22T02:02:27;13.63;;;11.05;;
3083;SDS011;1552;51.952;7.618;2023-06-22T02:04:56;15.75;;;11.77;;
3083;SDS011;1552;51.952;7.618;2023-06-22T02:07:23;12.10;;;10.82;;
3083;SDS011;1552;51.952;7.618;2023-06-22T02:09:51;13.70;;;11.25;;
3083;SDS011;1552;51.952;7.618;2023-06-22T02:12:23;18.33;;;10.77;;
3083;SDS011;1552;51.952;7.618;2023-06-22T02:14:52;14.55;;;12.23;;
3083;SDS011;1552;51.952;7.618;2023-06-22T02:17:18;13.77;;;11.10;;
3083;SDS011;1552;51.952;7.618;2023-06-22T02:19:45;19.15;;;12.40;;
3083;SDS011;1552;51.952;7.618;2023-06-22T02:22:12;15.43;;;11.68;;
3083;SDS011;1552;51.952;7.618;2023-06-22T02:24:39;15.02;;;11.20;;
3083;SDS011;1552;51.952;7.618;2023-06-22T02:27:06;17.27;;;12.00;;
3083;SDS011;1552;51.952;7.618;2023-06-22T02:29:32;15.73;;;12.80;;
3083;SDS011;1552;51.952;7.618;2023-06-22T02:31:59;15.50;;;12.57;;
3083;SDS011;1552;51.952;7.618;2023-06-22T02:34:25;15.18;;;12.10;;
3083;SDS011;1552;51.952;7.618;2023-06-22T02:36:52;15.02;;;12.43;;
3083;SDS011;1552;51.952;7.618;2023-06-22T02:39:20;14.93;;;12.93;;
3083;SDS011;1552;51.952;7.618;2023-06-22T02:41:47;15.63;;;12.10;;
3083;SDS011;1552;51.952;7.618;2023-06-22T02:44:13;15.23;;;11.95;;
3083;SDS011;1552;51.952;7.618;2023-06-22T02:46:40;16.05;;;12.27;;
3083;SDS011;1552;51.952;7.618;2023-06-22T02:49:06;17.05;;;11.73;;
3083;SDS011;1552;51.952;7.618;2023-06-22T02:51:33;16.30;;;12.02;;
3083;SDS011;1552;51.952;7.618;2023-06-22T02:54:00;16.38;;;12.35;;
3083;SDS011;1552;51.952;7.618;2023-06-22T02:56:28;14.15;;;12.13;;
3083;SDS011;1552;51.952;7.618;2023-06-22T02:58:55;17.48;;;13.27;;
3083;SDS011;1552;51.952;7.618;2023-06-22T03:01:26;15.82;;;12.60;;
3083;SDS011;1552;51.952;7.618;2023-06-22T03:03:53;15.32;;;12.88;;
3083;SDS011;1552;51.952;7.618;2023-06-22T03:06:19;16.23;;;12.35;;
3083;SDS011;1552;51.952;7.618;2023-06-22T03:08:48;16.83;;;12.52;;
3083;SDS011;1552;51.952;7.618;2023-06-22T03:11:14;18.45;;;12.25;;
3083;SDS011;1552;51.952;7.618;2023-06-22T03:13:42;14.98;;;11.93;;
3083;SDS011;1552;51.952;7.618;2023-06-22T03:16:09;13.45;;;11.25;;
3083;SDS011;1552;51.952;7.618;2023-06-22T03:18:35;16.65;;;12.10;;
3083;SDS011;1552;51.952;7.618;2023-06-22T03:21:01;16.05;;;13.13;;
3083;SDS011;1552;51.952;7.618;2023-06-22T03:23:28;12.82;;;11.40;;
3083;SDS011;1552;51.952;7.618;2023-06-22T03:25:54;17.17;;;12.32;;
3083;SDS011;1552;51.952;7.618;2023-06-22T03:28:21;15.93;;;12.52;;
3083;SDS011;1552;51.952;7.618;2023-06-22T03:30:49;14.43;;;12.15;;
3083;SDS011;1552;51.952;7.618;2023-06-22T03:33:16;13.05;;;11.43;;
3083;SDS011;1552;51.952;7.618;2023-06-22T03:35:42;15.10;;;11.73;;
3083;SDS011;1552;51.952;7.618;2023-06-22T03:38:08;15.48;;;11.82;;
3083;SDS011;1552;51.952;7.618;2023-06-22T03:40:35;14.60;;;12.23;;
3083;SDS011;1552;51.952;7.618;2023-06-22T03:43:01;16.65;;;12.50;;
3083;SDS011;1552;51.952;7.618;2023-06-22T03:45:27;16.30;;;12.32;;
3083;SDS011;1552;51.952;7.618;2023-06-22T03:47:55;16.50;;;12.07;;
3083;SDS011;1552;51.952;7.618;2023-06-22T03:50:21;14.73;;;12.10;;
3083;SDS011;1552;51.952;7.618;2023-06-22T03:52:48;14.38;;;12.57;;
3083;SDS011;1552;51.952;7.618;2023-06-22T03:55:16;19.08;;;13.02;;
3083;SDS011;1552;51.952;7.618;2023-06-22T03:57:43;14.98;;;11.45;;
3083;SDS011;1552;51.952;7.618;2023-06-22T04:00:09;15.50;;;12.05;;
3083;SDS011;1552;51.952;7.618;2023-06-22T04:02:36;16.98;;;13.32;;
3083;SDS011;1552;51.952;7.618;2023-06-22T04:05:04;15.40;;;12.13;;
3083;SDS011;1552;51.952;7.618;2023-06-22T04:07:30;14.23;;;12.40;;
3083;SDS011;1552;51.952;7.618;2023-06-22T04:09:57;15.40;;;11.32;;
3083;SDS011;1552;51.952;7.618;2023-06-22T04:12:23;18.08;;;13.68;;
3083;SDS011;1552;51.952;7.618;2023-06-22T04:14:49;13.85;;;12.07;;
3083;SDS011;1552;51.952;7.618;2023-06-22T04:17:16;15.10;;;12.02;;
3083;SDS011;1552;51.952;7.618;2023-06-22T04:19:42;14.90;;;12.02;;
3083;SDS011;1552;51.952;7.618;2023-06-22T04:22:10;13.95;;;12.50;;
3083;SDS011;1552;51.952;7.618;2023-06-22T04:24:37;16.45;;;12.25;;
3083;SDS011;1552;51.952;7.618;2023-06-22T04:27:03;15.10;;;11.38;;
3083;SDS011;1552;51.952;7.618;2023-06-22T04:29:30;14.63;;;12.82;;
3083;SDS011;1552;51.952;7.618;2023-06-22T04:31:57;15.60;;;12.25;;
3083;SDS011;1552;51.952;7.618;2023-06-22T04:34:28;14.80;;;12.80;;
3083;SDS011;1552;51.952;7.618;2023-06-22T04:36:54;16.35;;;12.27;;
3083;SDS011;1552;51.952;7.618;2023-06-22T04:39:22;15.23;;;12.75;;
3083;SDS011;1552;51.952;7.618;2023-06-22T04:41:49;16.88;;;12.50;;
3083;SDS011;1552;51.952;7.618;2023-06-22T04:44:17;14.32;;;11.93;;
3083;SDS011;1552;51.952;7.618;2023-06-22T04:46:48;14.40;;;12.30;;
3083;SDS011;1552;51.952;7.618;2023-06-22T04:49:19;16.23;;;13.07;;
3083;SDS011;1552;51.952;7.618;2023-06-22T04:51:45;15.98;;;11.88;;
3083;SDS011;1552;51.952;7.618;2023-06-22T04:54:12;15.77;;;11.60;;
3083;SDS011;1552;51.952;7.618;2023-06-22T04:56:39;15.02;;;11.25;;
3083;SDS011;1552;51.952;7.618;2023-06-22T04:59:06;14.70;;;11.88;;
3083;SDS011;1552;51.952;7.618;2023-06-22T05:01:32;16.08;;;12.80;;
3083;SDS011;1552;51.952;7.618;2023-06-22T05:04:00;12.52;;;11.13;;
3083;SDS011;1552;51.952;7.618;2023-06-22T05:06:27;12.45;;;10.70;;
3083;SDS011;1552;51.952;7.618;2023-06-22T05:08:54;15.35;;;11.07;;
3083;SDS011;1552;51.952;7.618;2023-06-22T05:11:22;13.00;;;11.48;;
3083;SDS011;1552;51.952;7.618;2023-06-22T05:13:50;14.30;;;11.80;;
3083;SDS011;1552;51.952;7.618;2023-06-22T05:16:16;15.57;;;12.90;;
3083;SDS011;1552;51.952;7.618;2023-06-22T05:18:43;15.20;;;11.48;;
3083;SDS011;1552;51.952;7.618;2023-06-22T05:21:09;16.17;;;11.43;;
3083;SDS011;1552;51.952;7.618;2023-06-22T05:23:35;15.75;;;11.05;;
3083;SDS011;1552;51.952;7.618;2023-06-22T05:26:02;15.43;;;11.23;;
3083;SDS011;1552;51.952;7.618;2023-06-22T05:28:28;12.95;;;10.73;;
3083;SDS011;1552;51.952;7.618;2023-06-22T05:30:56;13.63;;;11.68;;
3083;SDS011;1552;51.952;7.618;2023-06-22T05:33:22;13.30;;;10.93;;
3083;SDS011;1552;51.952;7.618;2023-06-22T05:35:48;12.02;;;9.35;;
3083;SDS011;1552;51.952;7.618;2023-06-22T05:38:15;12.93;;;9.90;;
3083;SDS011;1552;51.952;7.618;2023-06-22T05:40:41;10.88;;;9.07;;
3083;SDS011;1552;51.952;7.618;2023-06-22T05:43:08;13.23;;;9.95;;
3083;SDS011;1552;51.952;7.618;2023-06-22T05:45:34;12.55;;;10.02;;
3083;SDS011;1552;51.952;7.618;2023-06-22T05:48:02;11.77;;;10.05;;
3083;SDS011;1552;51.952;7.618;2023-06-22T05:50:28;11.75;;;10.05;;
3083;SDS011;1552;51.952;7.618;2023-06-22T05:52:54;13.48;;;9.43;;
3083;SDS011;1552;51.952;7.618;2023-06-22T05:55:21;13.23;;;9.52;;
3083;SDS011;1552;51.952;7.618;2023-06-22T05:57:47;12.80;;;9.77;;
3083;SDS011;1552;51.952;7.618;2023-06-22T06:00:14;11.13;;;9.27;;
3083;SDS011;1552;51.952;7.618;2023-06-22T06:02:40;14.55;;;10.00;;
3083;SDS011;1552;51.952;7.618;2023-06-22T06:05:10;13.60;;;9.00;;
3083;SDS011;1552;51.952;7.618;2023-06-22T06:07:38;13.45;;;10.68;;
3083;SDS011;1552;51.952;7.618;2023-06-22T06:10:05;12.45;;;9.55;;
3083;SDS011;1552;51.952;7.618;2023-06-22T06:12:32;11.30;;;9.05;;
3083;SDS011;1552;51.952;7.618;2023-06-22T06:14:58;10.90;;;9.20;;
3083;SDS011;1552;51.952;7.618;2023-06-22T06:17:24;13.48;;;10.25;;
3083;SDS011;1552;51.952;7.618;2023-06-22T06:19:51;12.05;;;9.85;;
3083;SDS011;1552;51.952;7.618;2023-06-22T06:22:18;15.40;;;9.52;;
3083;SDS011;1552;51.952;7.618;2023-06-22T06:24:46;13.20;;;10.55;;
3083;SDS011;1552;51.952;7.618;2023-06-22T06:27:13;12.77;;;9.75;;
3083;SDS011;1552;51.952;7.618;2023-06-22T06:29:39;12.02;;;8.50;;
3083;SDS011;1552;51.952;7.618;2023-06-22T06:32:06;10.40;;;8.55;;
3083;SDS011;1552;51.952;7.618;2023-06-22T06:34:33;13.95;;;10.02;;
3083;SDS011;1552;51.952;7.618;2023-06-22T06:37:00;11.95;;;8.32;;
3083;SDS011;1552;51.952;7.618;2023-06-22T06:39:27;12.48;;;8.68;;
3083;SDS011;1552;51.952;7.618;2023-06-22T06:41:54;13.07;;;9.65;;
3083;SDS011;1552;51.952;7.618;2023-06-22T06:44:20;12.90;;;10.25;;
3083;SDS011;1552;51.952;7.618;2023-06-22T06:46:46;12.65;;;9.57;;
3083;SDS011;1552;51.952;7.618;2023-06-22T06:49:13;14.05;;;9.13;;
3083;SDS011;1552;51.952;7.618;2023-06-22T06:51:39;12.10;;;9.50;;
3083;SDS011;1552;51.952;7.618;2023-06-22T06:54:05;13.70;;;9.80;;
3083;SDS011;1552;51.952;7.618;2023-06-22T06:56:33;10.27;;;9.05;;
3083;SDS011;1552;51.952;7.618;2023-06-22T06:58:59;14.20;;;9.10;;
3083;SDS011;1552;51.952;7.618;2023-06-22T07:01:26;11.27;;;9.65;;
3083;SDS011;1552;51.952;7.618;2023-06-22T07:03:52;12.77;;;10.20;;
3083;SDS011;1552;51.952;7.618;2023-06-22T07:06:19;10.35;;;8.82;;
3083;SDS011;1552;51.952;7.618;2023-06-22T07:08:45;13.05;;;9.95;;
3083;SDS011;1552;51.952;7.618;2023-06-22T07:11:11;13.73;;;10.70;;
3083;SDS011;1552;51.952;7.618;2023-06-22T07:13:39;15.27;;;10.77;;
3083;SDS011;1552;51.952;7.618;2023-06-22T07:16:05;13.35;;;10.43;;
3083;SDS011;1552;51.952;7.618;2023-06-22T07:18:32;14.20;;;9.98;;
3083;SDS011;1552;51.952;7.618;2023-06-22T07:20:58;12.80;;;9.77;;
3083;SDS011;1552;51.952;7.618;2023-06-22T07:23:24;14.27;;;9.95;;
3083;SDS011;1552;51.952;7.618;2023-06-22T07:25:51;14.80;;;10.73;;
3083;SDS011;1552;51.952;7.618;2023-06-22T07:28:17;12.27;;;10.13;;
3083;SDS011;1552;51.952;7.618;2023-06-22T07:30:45;12.75;;;10.50;;
3083;SDS011;1552;51.952;7.618;2023-06-22T07:33:12;14.23;;;10.60;;
3083;SDS011;1552;51.952;7.618;2023-06-22T07:35:38;13.30;;;11.18;;
3083;SDS011;1552;51.952;7.618;2023-06-22T07:38:04;13.70;;;11.73;;
3083;SDS011;1552;51.952;7.618;2023-06-22T07:40:31;16.38;;;10.65;;
3083;SDS011;1552;51.952;7.618;2023-06-22T07:42:57;17.55;;;11.27;;
3083;SDS011;1552;51.952;7.618;2023-06-22T07:45:23;13.02;;;9.98;;
3083;SDS011;1552;51.952;7.618;2023-06-22T07:47:51;14.00;;;10.07;;
3083;SDS011;1552;51.952;7.618;2023-06-22T07:50:17;17.50;;;11.05;;
3083;SDS011;1552;51.952;7.618;2023-06-22T07:52:44;14.80;;;11.80;;
3083;SDS011;1552;51.952;7.618;2023-06-22T07:55:11;14.55;;;11.48;;
3083;SDS011;1552;51.952;7.618;2023-06-22T07:57:37;11.02;;;9.93;;
3083;SDS011;1552;51.952;7.618;2023-06-22T08:00:04;16.65;;;12.13;;
3083;SDS011;1552;51.952;7.618;2023-06-22T08:02:37;15.55;;;12.52;;
3083;SDS011;1552;51.952;7.618;2023-06-22T08:05:05;18.50;;;12.93;;
3083;SDS011;1552;51.952;7.618;2023-06-22T08:07:39;14.70;;;10.80;;
3083;SDS011;1552;51.952;7.618;2023-06-22T08:10:09;16.33;;;13.25;;
3083;SDS011;1552;51.952;7.618;2023-06-22T08:12:36;12.63;;;10.15;;
3083;SDS011;1552;51.952;7.618;2023-06-22T08:15:03;16.92;;;11.70;;
3083;SDS011;1552;51.952;7.618;2023-06-22T08:17:30;13.65;;;11.40;;
3083;SDS011;1552;51.952;7.618;2023-06-22T08:19:57;13.65;;;10.77;;
3083;SDS011;1552;51.952;7.618;2023-06-22T08:22:24;13.30;;;10.40;;
3083;SDS011;1552;51.952;7.618;2023-06-22T08:24:51;13.68;;;11.18;;
3083;SDS011;1552;51.952;7.618;2023-06-22T08:27:17;12.70;;;11.25;;
3083;SDS011;1552;51.952;7.618;2023-06-22T08:29:46;15.80;;;10.95;;
3083;SDS011;1552;51.952;7.618;2023-06-22T08:32:12;14.00;;;11.40;;
3083;SDS011;1552;51.952;7.618;2023-06-22T08:34:38;13.77;;;10.95;;
3083;SDS011;1552;51.952;7.618;2023-06-22T08:37:07;15.05;;;12.23;;
3083;SDS011;1552;51.952;7.618;2023-06-22T08:39:34;16.17;;;12.63;;
3083;SDS011;1552;51.952;7.618;2023-06-22T08:42:01;12.82;;;11.43;;
3083;SDS011;1552;51.952;7.618;2023-06-22T08:44:27;13.98;;;11.23;;
3083;SDS011;1552;51.952;7.618;2023-06-22T08:46:53;15.00;;;11.95;;
3083;SDS011;1552;51.952;7.618;2023-06-22T08:49:19;14.77;;;11.77;;
3083;SDS011;1552;51.952;7.618;2023-06-22T08:51:46;14.90;;;12.32;;
3083;SDS011;1552;51.952;7.618;2023-06-22T08:54:14;13.77;;;10.85;;
3083;SDS011;1552;51.952;7.618;2023-06-22T08:56:42;17.50;;;12.27;;
3083;SDS011;1552;51.952;7.618;2023-06-22T08:59:09;13.57;;;11.00;;
3083;SDS011;1552;51.952;7.618;2023-06-22T09:01:35;16.77;;;11.52;;
3083;SDS011;1552;51.952;7.618;2023-06-22T09:04:02;16.85;;;12.93;;
3083;SDS011;1552;51.952;7.618;2023-06-22T09:06:31;15.93;;;13.90;;
3083;SDS011;1552;51.952;7.618;2023-06-22T09:08:57;21.70;;;13.10;;
3083;SDS011;1552;51.952;7.618;2023-06-22T09:11:25;16.33;;;13.10;;
3083;SDS011;1552;51.952;7.618;2023-06-22T09:13:52;16.48;;;12.65;;
3083;SDS011;1552;51.952;7.618;2023-06-22T09:16:19;16.90;;;12.88;;
3083;SDS011;1552;51.952;7.618;2023-06-22T09:18:46;15.82;;;13.32;;
3083;SDS011;1552;51.952;7.618;2023-06-22T09:21:12;14.25;;;12.75;;
3083;SDS011;1552;51.952;7.618;2023-06-22T09:23:39;14.00;;;11.68;;
3083;SDS011;1552;51.952;7.618;2023-06-22T09:26:05;14.77;;;12.50;;
3083;SDS011;1552;51.952;7.618;2023-06-22T09:28:31;13.63;;;11.25;;
3083;SDS011;1552;51.952;7.618;2023-06-22T09:30:59;15.88;;;13.88;;
3083;SDS011;1552;51.952;7.618;2023-06-22T09:33:26;14.25;;;12.75;;
3083;SDS011;1552;51.952;7.618;2023-06-22T09:35:52;15.65;;;12.68;;
3083;SDS011;1552;51.952;7.618;2023-06-22T09:38:18;13.75;;;11.60;;
3083;SDS011;1552;51.952;7.618;2023-06-22T09:40:45;15.82;;;13.20;;
3083;SDS011;1552;51.952;7.618;2023-06-22T09:43:11;15.40;;;12.95;;
3083;SDS011;1552;51.952;7.618;2023-06-22T09:45:38;12.57;;;11.27;;
3083;SDS011;1552;51.952;7.618;2023-06-22T09:48:08;15.00;;;13.45;;
3083;SDS011;1552;51.952;7.618;2023-06-22T09:50:38;16.98;;;13.07;;
3083;SDS011;1552;51.952;7.618;2023-06-22T09:53:04;14.50;;;12.10;;
3083;SDS011;1552;51.952;7.618;2023-06-22T09:55:30;14.90;;;13.10;;
3083;SDS011;1552;51.952;7.618;2023-06-22T09:57:56;19.08;;;12.65;;
3083;SDS011;1552;51.952;7.618;2023-06-22T10:00:23;13.52;;;12.13;;
3083;SDS011;1552;51.952;7.618;2023-06-22T10:02:49;14.38;;;11.40;;
3083;SDS011;1552;51.952;7.618;2023-06-22T10:05:17;14.10;;;12.48;;
3083;SDS011;1552;51.952;7.618;2023-06-22T10:07:43;13.55;;;11.85;;
3083;SDS011;1552;51.952;7.618;2023-06-22T10:10:10;15.90;;;12.57;;
3083;SDS011;1552;51.952;7.618;2023-06-22T10:12:36;17.50;;;13.98;;
3083;SDS011;1552;51.952;7.618;2023-06-22T10:15:02;14.23;;;12.30;;
3083;SDS011;1552;51.952;7.618;2023-06-22T10:17:29;12.25;;;10.68;;
3083;SDS011;1552;51.952;7.618;2023-06-22T10:19:55;12.75;;;11.23;;
3083;SDS011;1552;51.952;7.618;2023-06-22T10:22:23;16.48;;;12.85;;
3083;SDS011;1552;51.952;7.618;2023-06-22T10:24:49;13.18;;;11.70;;
3083;SDS011;1552;51.952;7.618;2023-06-22T10:27:15;14.10;;;11.48;;
3083;SDS011;1552;51.952;7.618;2023-06-22T10:29:41;14.82;;;13.30;;
3083;SDS011;1552;51.952;7.618;2023-06-22T10:32:08;12.57;;;11.23;;
3083;SDS011;1552;51.952;7.618;2023-06-22T10:34:34;15.43;;;11.43;;
3083;SDS011;1552;51.952;7.618;2023-06-22T10:37:01;12.57;;;11.27;;
3083;SDS011;1552;51.952;7.618;2023-06-22T10:39:28;12.98;;;10.73;;
3083;SDS011;1552;51.952;7.618;2023-06-22T10:41:55;15.45;;;11.70;;
3083;SDS011;1552;51.952;7.618;2023-06-22T10:44:21;14.57;;;11.77;;
3083;SDS011;1552;51.952;7.618;2023-06-22T10:46:47;10.98;;;9.85;;
3083;SDS011;1552;51.952;7.618;2023-06-22T10:49:14;11.40;;;10.20;;
3083;SDS011;1552;51.952;7.618;2023-06-22T10:51:40;10.15;;;9.15;;
3083;SDS011;1552;51.952;7.618;2023-06-22T10:54:06;15.38;;;10.75;;
3083;SDS011;1552;51.952;7.618;2023-06-22T10:56:34;14.23;;;12.40;;
3083;SDS011;1552;51.952;7.618;2023-06-22T10:59:00;12.18;;;10.93;;
3083;SDS011;1552;51.952;7.618;2023-06-22T11:01:27;11.98;;;10.77;;
3083;SDS011;1552;51.952;7.618;2023-06-22T11:03:53;12.15;;;10.88;;
3083;SDS011;1552;51.952;7.618;2023-06-22T11:06:19;13.93;;;12.15;;
3083;SDS011;1552;51.952;7.618;2023-06-22T11:08:46;12.98;;;11.32;;
3083;SDS011;1552;51.952;7.618;2023-06-22T11:11:12;15.52;;;12.27;;
3083;SDS011;1552;51.952;7.618;2023-06-22T11:13:39;13.13;;;11.73;;
3083;SDS011;1552;51.952;7.618;2023-06-22T11:16:06;12.75;;;11.45;;
3083;SDS011;1552;51.952;7.618;2023-06-22T11:18:32;12.48;;;11.18;;
3083;SDS011;1552;51.952;7.618;2023-06-22T11:20:59;12.10;;;10.65;;
3083;SDS011;1552;51.952;7.618;2023-06-22T11:23:25;13.38;;;10.90;;
3083;SDS011;1552;51.952;7.618;2023-06-22T11:25:53;11.48;;;10.18;;
3083;SDS011;1552;51.952;7.618;2023-06-22T11:28:19;14.98;;;11.80;;
3083;SDS011;1552;51.952;7.618;2023-06-22T11:30:47;14.73;;;11.90;;
3083;SDS011;1552;51.952;7.618;2023-06-22T11:33:13;14.77;;;11.43;;
3083;SDS011;1552;51.952;7.618;2023-06-22T11:35:40;11.88;;;10.68;;
3083;SDS011;1552;51.952;7.618;2023-06-22T11:38:06;15.15;;;12.30;;
3083;SDS011;1552;51.952;7.618;2023-06-22T11:40:32;17.38;;;12.77;;
3083;SDS011;1552;51.952;7.618;2023-06-22T11:42:59;15.13;;;12.18;;
3083;SDS011;1552;51.952;7.618;2023-06-22T11:45:25;12.80;;;11.02;;
3083;SDS011;1552;51.952;7.618;2023-06-22T11:47:53;15.70;;;13.07;;
3083;SDS011;1552;51.952;7.618;2023-06-22T11:50:19;13.98;;;12.38;;
3083;SDS011;1552;51.952;7.618;2023-06-22T11:52:45;15.18;;;13.25;;
3083;SDS011;1552;51.952;7.618;2023-06-22T11:55:12;17.27;;;12.77;;
3083;SDS011;1552;51.952;7.618;2023-06-22T11:57:38;13.13;;;11.55;;
3083;SDS011;1552;51.952;7.618;2023-06-22T12:00:05;15.55;;;12.90;;
3083;SDS011;1552;51.952;7.618;2023-06-22T12:02:42;12.13;;;10.80;;
3083;SDS011;1552;51.952;7.618;2023-06-22T12:05:09;12.88;;;11.55;;
3083;SDS011;1552;51.952;7.618;2023-06-22T12:07:36;15.40;;;11.75;;
3083;SDS011;1552;51.952;7.618;2023-06-22T12:10:02;13.60;;;11.85;;
3083;SDS011;1552;51.952;7.618;2023-06-22T12:12:29;13.68;;;12.00;;
3083;SDS011;1552;51.952;7.618;2023-06-22T12:14:58;14.38;;;12.00;;
3083;SDS011;1552;51.952;7.618;2023-06-22T12:17:28;15.30;;;12.65;;
3083;SDS011;1552;51.952;7.618;2023-06-22T12:19:54;14.63;;;11.82;;
3083;SDS011;1552;51.952;7.618;2023-06-22T12:22:22;15.60;;;12.48;;
3083;SDS011;1552;51.952;7.618;2023-06-22T12:24:48;15.98;;;12.57;;
3083;SDS011;1552;51.952;7.618;2023-06-22T12:27:16;16.63;;;11.88;;
3083;SDS011;1552;51.952;7.618;2023-06-22T12:29:43;15.70;;;12.77;;
3083;SDS011;1552;51.952;7.618;2023-06-22T12:32:09;15.43;;;12.50;;
3083;SDS011;1552;51.952;7.618;2023-06-22T12:34:37;15.15;;;12.05;;
3083;SDS011;1552;51.952;7.618;2023-06-22T12:37:04;13.98;;;12.20;;
3083;SDS011;1552;51.952;7.618;2023-06-22T12:39:32;13.48;;;11.75;;
3083;SDS011;1552;51.952;7.618;2023-06-22T12:41:58;13.45;;;12.00;;
3083;SDS011;1552;51.952;7.618;2023-06-22T12:44:24;15.20;;;13.10;;
3083;SDS011;1552;51.952;7.618;2023-06-22T12:46:51;17.08;;;13.82;;
3083;SDS011;1552;51.952;7.618;2023-06-22T12:49:17;16.38;;;13.82;;
3083;SDS011;1552;51.952;7.618;2023-06-22T12:51:44;21.92;;;14.55;;
3083;SDS011;1552;51.952;7.618;2023-06-22T12:54:10;16.85;;;14.82;;
3083;SDS011;1552;51.952;7.618;2023-06-22T12:56:38;16.30;;;13.63;;
3083;SDS011;1552;51.952;7.618;2023-06-22T12:59:04;17.80;;;15.45;;
3083;SDS011;1552;51.952;7.618;2023-06-22T13:01:31;17.50;;;15.38;;
3083;SDS011;1552;51.952;7.618;2023-06-22T13:03:57;17.02;;;15.20;;
3083;SDS011;1552;51.952;7.618;2023-06-22T13:06:24;20.40;;;15.93;;
3083;SDS011;1552;51.952;7.618;2023-06-22T13:08:51;19.88;;;16.90;;
3083;SDS011;1552;51.952;7.618;2023-06-22T13:11:17;23.00;;;17.88;;
3083;SDS011;1552;51.952;7.618;2023-06-22T13:13:45;20.17;;;17.42;;
3083;SDS011;1552;51.952;7.618;2023-06-22T13:16:11;20.65;;;17.23;;
3083;SDS011;1552;51.952;7.618;2023-06-22T13:18:38;23.17;;;18.23;;
3083;SDS011;1552;51.952;7.618;2023-06-22T13:21:04;23.52;;;18.83;;
3083;SDS011;1552;51.952;7.618;2023-06-22T13:23:30;22.17;;;18.20;;
3083;SDS011;1552;51.952;7.618;2023-06-22T13:25:57;22.77;;;19.60;;
3083;SDS011;1552;51.952;7.618;2023-06-22T13:28:25;21.48;;;19.17;;
3083;SDS011;1552;51.952;7.618;2023-06-22T13:30:53;23.35;;;20.27;;
3083;SDS011;1552;51.952;7.618;2023-06-22T13:33:19;24.98;;;20.83;;
3083;SDS011;1552;51.952;7.618;2023-06-22T13:35:45;22.58;;;20.17;;
3083;SDS011;1552;51.952;7.618;2023-06-22T13:38:11;23.17;;;20.67;;
3083;SDS011;1552;51.952;7.618;2023-06-22T13:40:38;21.58;;;18.05;;
3083;SDS011;1552;51.952;7.618;2023-06-22T13:43:04;25.50;;;19.92;;
3083;SDS011;1552;51.952;7.618;2023-06-22T13:45:30;26.35;;;20.75;;
3083;SDS011;1552;51.952;7.618;2023-06-22T13:47:58;24.42;;;19.63;;
3083;SDS011;1552;51.952;7.618;2023-06-22T13:50:24;25.73;;;19.77;;
3083;SDS011;1552;51.952;7.618;2023-06-22T13:52:51;22.67;;;20.05;;
3083;SDS011;1552;51.952;7.618;2023-06-22T13:55:17;24.67;;;21.48;;
3083;SDS011;1552;51.952;7.618;2023-06-22T13:57:46;22.13;;;19.73;;
3083;SDS011;1552;51.952;7.618;2023-06-22T14:00:12;26.65;;;21.60;;
3083;SDS011;1552;51.952;7.618;2023-06-22T14:02:39;24.98;;;20.38;;
3083;SDS011;1552;51.952;7.618;2023-06-22T14:05:07;24.75;;;20.38;;
3083;SDS011;1552;51.952;7.618;2023-06-22T14:07:34;17.15;;;14.40;;
3083;SDS011;1552;51.952;7.618;2023-06-22T14:10:01;18.25;;;15.82;;
3083;SDS011;1552;51.952;7.618;2023-06-22T14:12:27;20.13;;;15.90;;
3083;SDS011;1552;51.952;7.618;2023-06-22T14:14:53;21.40;;;16.92;;
3083;SDS011;1552;51.952;7.618;2023-06-22T14:17:19;18.60;;;15.60;;
3083;SDS011;1552;51.952;7.618;2023-06-22T14:19:50;20.65;;;15.57;;
3083;SDS011;1552;51.952;7.618;2023-06-22T14:22:18;16.63;;;14.82;;
3083;SDS011;1552;51.952;7.618;2023-06-22T14:24:45;18.90;;;15.60;;
3083;SDS011;1552;51.952;7.618;2023-06-22T14:27:11;20.35;;;16.70;;
3083;SDS011;1552;51.952;7.618;2023-06-22T14:29:38;17.08;;;13.95;;
3083;SDS011;1552;51.952;7.618;2023-06-22T14:32:04;14.90;;;13.43;;
3083;SDS011;1552;51.952;7.618;2023-06-22T14:34:31;13.73;;;12.05;;
3083;SDS011;1552;51.952;7.618;2023-06-22T14:36:57;13.05;;;10.68;;
3083;SDS011;1552;51.952;7.618;2023-06-22T14:39:25;11.95;;;9.80;;
3083;SDS011;1552;51.952;7.618;2023-06-22T14:41:51;12.52;;;10.77;;
3083;SDS011;1552;51.952;7.618;2023-06-22T14:44:18;12.75;;;9.95;;
3083;SDS011;1552;51.952;7.618;2023-06-22T14:46:44;12.65;;;10.70;;
3083;SDS011;1552;51.952;7.618;2023-06-22T14:49:10;16.23;;;9.73;;